Time;durP1;ratioP1;P1;durP2;ratioP2;P2;SDS_P1;SDS_P2;PMS_P1;PMS_P2;Temp;Humidity;BMP_temperature;BMP_pressure;BME280_temperature;BME280_humidity;BME280_pressure;Samples;Min_cycle;Max_cycle;Signal;HPM_P1;HPM_P2
2021/01/14 00:01:59;;;;;;;2.40;0.43;;;;;;;;;;5052468;28;20020;-65
2021/01/14 00:04:25;;;;;;;0.70;0.30;;;;;;;;;;5055770;28;21092;-65
2021/01/14 00:06:53;;;;;;;1.40;0.47;;;;;;;;;;5053847;28;20027;-65
2021/01/14 00:09:18;;;;;;;0.70;0.30;;;;;;;;;;5050340;28;20021;-65
2021/01/14 00:11:46;;;;;;;0.60;0.27;;;;;;;;;;5061267;28;20028;-65
2021/01/14 00:14:11;;;;;;;3.00;0.70;;;;;;;;;;5074242;28;20030;-65
2021/01/14 00:16:37;;;;;;;2.73;0.40;;;;;;;;;;5072609;28;20021;-65
2021/01/14 00:19:03;;;;;;;0.57;0.20;;;;;;;;;;5070167;28;20021;-65
2021/01/14 00:21:28;;;;;;;2.73;0.57;;;;;;;;;;5054343;28;20472;-65
2021/01/14 00:23:53;;;;;;;5.53;0.37;;;;;;;;;;5058668;28;20036;-65
2021/01/14 00:26:18;;;;;;;1.63;0.50;;;;;;;;;;5071376;28;20020;-65
2021/01/14 00:28:44;;;;;;;8.47;0.63;;;;;;;;;;5051096;28;20422;-65
2021/01/14 00:31:09;;;;;;;1.20;0.30;;;;;;;;;;5054015;28;20535;-65
2021/01/14 00:33:34;;;;;;;3.93;0.50;;;;;;;;;;5056210;28;20359;-65
2021/01/14 00:35:59;;;;;;;2.23;0.40;;;;;;;;;;5070323;28;20081;-65
2021/01/14 00:38:24;;;;;;;1.30;0.20;;;;;;;;;;5056288;28;20127;-65
2021/01/14 00:40:50;;;;;;;5.87;1.67;;;;;;;;;;5056528;28;20025;-65
2021/01/14 00:43:15;;;;;;;1.47;0.10;;;;;;;;;;5061164;28;20020;-65
2021/01/14 00:45:41;;;;;;;0.93;0.20;;;;;;;;;;5063256;28;20024;-66
2021/01/14 00:48:06;;;;;;;0.77;0.17;;;;;;;;;;5063144;28;20107;-65
2021/01/14 00:50:31;;;;;;;3.27;0.77;;;;;;;;;;5063832;28;20031;-65
2021/01/14 00:52:57;;;;;;;10.80;0.60;;;;;;;;;;5055817;28;20027;-66
2021/01/14 00:55:23;;;;;;;1.00;0.20;;;;;;;;;;5065426;28;20040;-65
2021/01/14 00:57:48;;;;;;;0.67;0.20;;;;;;;;;;5073477;28;20030;-66
2021/01/14 01:00:15;;;;;;;1.07;0.20;;;;;;;;;;5061210;28;20056;-65
2021/01/14 01:02:44;;;;;;;2.63;0.50;;;;;;;;;;5052644;28;20078;-65
2021/01/14 01:05:10;;;;;;;1.53;0.27;;;;;;;;;;5066180;28;20020;-65
2021/01/14 01:07:35;;;;;;;1.60;0.30;;;;;;;;;;5071487;28;20387;-65
2021/01/14 01:10:01;;;;;;;2.33;0.30;;;;;;;;;;5062853;28;20032;-65
2021/01/14 01:12:26;;;;;;;3.83;0.70;;;;;;;;;;5053322;28;20112;-65
2021/01/14 01:14:51;;;;;;;1.37;0.40;;;;;;;;;;5067924;28;20086;-65
2021/01/14 01:17:16;;;;;;;2.70;0.57;;;;;;;;;;5073111;28;20451;-65
2021/01/14 01:19:42;;;;;;;1.87;0.33;;;;;;;;;;5065840;28;20025;-65
2021/01/14 01:22:07;;;;;;;2.80;0.60;;;;;;;;;;5071894;28;20021;-65
2021/01/14 01:24:32;;;;;;;0.37;0.37;;;;;;;;;;5056607;28;20041;-65
2021/01/14 01:26:57;;;;;;;1.97;0.50;;;;;;;;;;5072522;28;20056;-65
2021/01/14 01:29:23;;;;;;;1.13;0.27;;;;;;;;;;5050061;28;20029;-65
2021/01/14 01:31:48;;;;;;;0.63;0.10;;;;;;;;;;5064659;28;20064;-65
2021/01/14 01:34:13;;;;;;;0.50;0.10;;;;;;;;;;5055213;28;20171;-65
2021/01/14 01:36:38;;;;;;;3.37;0.17;;;;;;;;;;5071574;28;20029;-65
2021/01/14 01:39:04;;;;;;;1.53;0.20;;;;;;;;;;5059048;28;20501;-65
2021/01/14 01:41:29;;;;;;;2.10;0.10;;;;;;;;;;5057853;28;20016;-65
2021/01/14 01:43:54;;;;;;;1.23;0.20;;;;;;;;;;5063933;28;20383;-65
2021/01/14 01:46:24;;;;;;;1.70;0.20;;;;;;;;;;5070627;28;20021;-65
2021/01/14 01:48:49;;;;;;;1.50;0.10;;;;;;;;;;5069473;28;20025;-65
2021/01/14 01:51:14;;;;;;;2.03;0.10;;;;;;;;;;5077260;28;20046;-65
2021/01/14 01:53:39;;;;;;;0.77;0.20;;;;;;;;;;5080752;28;20012;-65
2021/01/14 01:56:05;;;;;;;1.37;0.50;;;;;;;;;;5072068;28;20051;-65
2021/01/14 01:58:32;;;;;;;1.43;0.20;;;;;;;;;;5063288;28;20025;-65
2021/01/14 02:00:57;;;;;;;1.60;0.40;;;;;;;;;;5051611;28;20096;-65
2021/01/14 02:03:22;;;;;;;3.23;0.30;;;;;;;;;;5050810;28;20045;-65
2021/01/14 02:05:48;;;;;;;0.30;0.10;;;;;;;;;;5062850;28;20092;-65
2021/01/14 02:08:19;;;;;;;3.90;0.57;;;;;;;;;;5050830;28;20019;-65
2021/01/14 02:10:50;;;;;;;0.93;0.43;;;;;;;;;;5066841;28;20087;-65
2021/01/14 02:13:34;;;;;;;1.03;0.10;;;;;;;;;;5062255;28;20040;-65
2021/01/14 02:16:00;;;;;;;2.10;0.20;;;;;;;;;;5066056;28;20490;-65
2021/01/14 02:18:26;;;;;;;1.67;0.10;;;;;;;;;;5050894;28;20029;-65
2021/01/14 02:20:56;;;;;;;2.93;0.50;;;;;;;;;;5062415;28;20013;-65
2021/01/14 02:23:25;;;;;;;1.23;0.20;;;;;;;;;;5053944;28;20021;-65
2021/01/14 02:25:58;;;;;;;2.20;0.20;;;;;;;;;;5059201;28;20075;-65
2021/01/14 02:28:23;;;;;;;2.00;0.50;;;;;;;;;;5069851;28;20020;-66
2021/01/14 02:30:49;;;;;;;8.87;0.67;;;;;;;;;;5069256;28;20011;-65
2021/01/14 02:33:14;;;;;;;0.80;0.20;;;;;;;;;;5070678;28;20528;-65
2021/01/14 02:35:39;;;;;;;1.33;0.10;;;;;;;;;;5069082;28;20024;-65
2021/01/14 02:38:04;;;;;;;4.13;0.50;;;;;;;;;;5065091;28;20013;-65
2021/01/14 02:40:30;;;;;;;5.73;0.90;;;;;;;;;;5063290;28;20054;-64
2021/01/14 02:42:55;;;;;;;2.63;0.63;;;;;;;;;;5056860;28;20566;-65
2021/01/14 02:45:20;;;;;;;1.83;0.40;;;;;;;;;;5072948;28;20016;-65
2021/01/14 02:47:46;;;;;;;2.43;0.50;;;;;;;;;;5055989;28;20016;-65
2021/01/14 02:50:12;;;;;;;4.90;0.90;;;;;;;;;;5063328;28;20025;-65
2021/01/14 02:52:39;;;;;;;1.33;0.33;;;;;;;;;;5056353;28;20031;-66
2021/01/14 02:55:04;;;;;;;2.40;0.70;;;;;;;;;;5054566;28;20388;-65
2021/01/14 02:57:30;;;;;;;2.63;0.60;;;;;;;;;;5072095;28;20029;-65
2021/01/14 02:59:55;;;;;;;1.17;0.87;;;;;;;;;;5059882;28;20031;-65
2021/01/14 03:02:21;;;;;;;2.57;0.87;;;;;;;;;;5071965;28;20362;-65
2021/01/14 03:04:46;;;;;;;5.90;0.67;;;;;;;;;;5058436;28;20420;-65
2021/01/14 03:07:11;;;;;;;0.97;0.43;;;;;;;;;;5056665;28;20021;-65
2021/01/14 03:09:36;;;;;;;4.13;0.97;;;;;;;;;;5052600;28;20029;-65
2021/01/14 03:12:01;;;;;;;3.07;0.90;;;;;;;;;;5056945;28;20032;-65
2021/01/14 03:14:27;;;;;;;7.00;0.83;;;;;;;;;;5075529;28;20111;-66
2021/01/14 03:16:52;;;;;;;4.90;0.67;;;;;;;;;;5074797;28;20062;-66
2021/01/14 03:19:17;;;;;;;5.10;0.93;;;;;;;;;;5072006;28;20073;-66
2021/01/14 03:21:42;;;;;;;3.10;1.30;;;;;;;;;;5062576;28;20099;-65
2021/01/14 03:24:08;;;;;;;1.63;0.73;;;;;;;;;;5059520;28;20242;-66
2021/01/14 03:26:34;;;;;;;1.50;0.67;;;;;;;;;;5074010;28;20045;-65
2021/01/14 03:29:00;;;;;;;3.63;0.80;;;;;;;;;;5070879;28;20027;-66
2021/01/14 03:31:25;;;;;;;1.70;0.37;;;;;;;;;;5074472;28;20091;-65
2021/01/14 03:33:50;;;;;;;2.37;0.60;;;;;;;;;;5074366;28;20025;-66
2021/01/14 03:36:17;;;;;;;3.07;0.70;;;;;;;;;;5064391;28;20023;-65
2021/01/14 03:38:42;;;;;;;1.67;0.70;;;;;;;;;;5071451;28;20028;-65
2021/01/14 03:41:11;;;;;;;1.80;0.50;;;;;;;;;;5071835;28;20024;-65
2021/01/14 03:43:36;;;;;;;4.27;1.60;;;;;;;;;;5063868;28;20124;-65
2021/01/14 03:46:06;;;;;;;1.83;1.00;;;;;;;;;;5055200;28;20447;-65
2021/01/14 03:48:31;;;;;;;4.80;1.80;;;;;;;;;;5052901;28;20025;-65
2021/01/14 03:50:56;;;;;;;10.47;2.27;;;;;;;;;;5060522;28;20391;-68
2021/01/14 03:53:21;;;;;;;3.13;1.03;;;;;;;;;;5067382;28;20060;-67
2021/01/14 03:55:47;;;;;;;4.63;2.87;;;;;;;;;;5074621;28;20145;-67
2021/01/14 03:58:12;;;;;;;1.97;1.27;;;;;;;;;;5073645;28;20357;-67
2021/01/14 04:00:37;;;;;;;5.20;2.07;;;;;;;;;;5070253;28;20012;-67
2021/01/14 04:03:03;;;;;;;5.83;2.90;;;;;;;;;;5072610;28;20028;-67
2021/01/14 04:05:28;;;;;;;5.63;1.60;;;;;;;;;;5074459;28;20034;-67
2021/01/14 04:07:53;;;;;;;3.17;1.97;;;;;;;;;;5073238;28;20020;-67
2021/01/14 04:10:18;;;;;;;1.57;1.10;;;;;;;;;;5070198;28;20029;-67
2021/01/14 04:12:44;;;;;;;1.80;1.47;;;;;;;;;;5073542;28;20017;-67
2021/01/14 04:15:09;;;;;;;6.37;2.53;;;;;;;;;;5055009;28;20036;-67
2021/01/14 04:17:34;;;;;;;1.73;1.00;;;;;;;;;;5059112;28;20020;-67
2021/01/14 04:19:59;;;;;;;1.23;0.63;;;;;;;;;;5053191;28;20170;-67
2021/01/14 04:22:25;;;;;;;6.40;2.77;;;;;;;;;;5070143;28;20089;-67
2021/01/14 04:24:50;;;;;;;2.70;1.67;;;;;;;;;;5074051;28;20128;-67
2021/01/14 04:27:15;;;;;;;3.00;2.23;;;;;;;;;;5064231;28;20104;-67
2021/01/14 04:29:40;;;;;;;2.03;1.17;;;;;;;;;;5049965;28;20056;-67
2021/01/14 04:32:06;;;;;;;2.40;0.93;;;;;;;;;;5054720;28;20063;-67
2021/01/14 04:34:31;;;;;;;2.40;1.43;;;;;;;;;;5053996;28;20067;-68
2021/01/14 04:36:57;;;;;;;3.07;1.23;;;;;;;;;;5062572;28;20031;-67
2021/01/14 04:39:22;;;;;;;1.97;1.10;;;;;;;;;;5062947;28;20024;-67
2021/01/14 04:41:50;;;;;;;4.43;2.73;;;;;;;;;;5072545;28;20036;-67
2021/01/14 04:44:15;;;;;;;1.27;0.97;;;;;;;;;;5074049;28;20048;-67
2021/01/14 04:46:41;;;;;;;3.60;1.67;;;;;;;;;;5069431;28;20068;-68
2021/01/14 04:49:06;;;;;;;3.67;2.53;;;;;;;;;;5055008;28;20068;-66
2021/01/14 04:51:32;;;;;;;3.27;1.37;;;;;;;;;;5069577;28;20025;-67
2021/01/14 04:54:02;;;;;;;5.17;1.47;;;;;;;;;;5073386;28;20032;-67
2021/01/14 04:56:31;;;;;;;4.33;1.90;;;;;;;;;;5071499;28;20032;-65
2021/01/14 04:58:57;;;;;;;6.67;3.40;;;;;;;;;;5068865;28;20104;-66
2021/01/14 05:01:24;;;;;;;3.63;1.87;;;;;;;;;;5072192;28;20017;-65
2021/01/14 05:03:51;;;;;;;2.83;1.50;;;;;;;;;;5072091;28;20031;-66
2021/01/14 05:06:17;;;;;;;1.87;0.83;;;;;;;;;;5057503;28;20029;-66
2021/01/14 05:08:43;;;;;;;2.30;1.07;;;;;;;;;;5066383;28;20356;-66
2021/01/14 05:11:10;;;;;;;2.13;1.87;;;;;;;;;;5068794;28;20036;-66
2021/01/14 05:13:36;;;;;;;1.50;1.23;;;;;;;;;;5053226;28;20071;-66
2021/01/14 05:16:03;;;;;;;2.80;1.53;;;;;;;;;;5052179;28;20408;-66
2021/01/14 05:18:29;;;;;;;1.73;1.13;;;;;;;;;;5054739;28;20017;-66
2021/01/14 05:20:56;;;;;;;2.93;2.63;;;;;;;;;;5066431;28;20075;-66
2021/01/14 05:23:22;;;;;;;3.60;1.73;;;;;;;;;;5061326;28;20017;-66
2021/01/14 05:25:51;;;;;;;5.00;2.47;;;;;;;;;;5051455;28;20040;-66
2021/01/14 05:28:17;;;;;;;4.80;2.60;;;;;;;;;;5066994;28;20078;-66
2021/01/14 05:30:42;;;;;;;2.80;1.87;;;;;;;;;;5070749;28;20013;-66
2021/01/14 05:33:12;;;;;;;2.97;1.93;;;;;;;;;;5071630;28;20021;-66
2021/01/14 05:35:47;;;;;;;2.43;1.67;;;;;;;;;;5071089;28;20017;-66
2021/01/14 05:38:19;;;;;;;3.20;2.50;;;;;;;;;;5051153;28;20017;-66
2021/01/14 05:41:10;;;;;;;4.83;2.37;;;;;;;;;;5073308;28;20074;-66
2021/01/14 05:43:29;;;;;;;8.23;2.47;;;;;;;;;;5054612;28;20025;-67
2021/01/14 05:45:54;;;;;;;1.13;0.90;;;;;;;;;;5052296;28;20392;-66
2021/01/14 05:48:20;;;;;;;5.40;1.90;;;;;;;;;;5064401;28;20024;-65
2021/01/14 05:50:46;;;;;;;2.53;0.80;;;;;;;;;;5066723;28;20011;-66
2021/01/14 05:53:15;;;;;;;6.63;3.57;;;;;;;;;;5065611;28;20067;-66
2021/01/14 05:55:42;;;;;;;5.53;1.13;;;;;;;;;;5067010;28;20025;-66
2021/01/14 05:58:08;;;;;;;3.30;2.37;;;;;;;;;;5058194;28;20021;-66
2021/01/14 06:00:35;;;;;;;3.43;2.07;;;;;;;;;;5054891;28;20502;-66
2021/01/14 06:03:23;;;;;;;6.43;2.20;;;;;;;;;;5061118;28;20071;-66
2021/01/14 06:05:48;;;;;;;2.60;1.27;;;;;;;;;;5064756;28;20052;-66
2021/01/14 06:08:24;;;;;;;2.63;1.13;;;;;;;;;;5054739;28;20109;-66
2021/01/14 06:10:49;;;;;;;6.80;2.90;;;;;;;;;;5049042;28;20013;-66
2021/01/14 06:13:15;;;;;;;2.07;1.87;;;;;;;;;;5056450;28;20020;-66
2021/01/14 06:15:40;;;;;;;3.90;2.07;;;;;;;;;;5069106;28;20548;-66
2021/01/14 06:18:10;;;;;;;3.63;3.30;;;;;;;;;;5071885;28;20379;-66
2021/01/14 06:20:48;;;;;;;4.60;3.13;;;;;;;;;;5066884;28;20027;-66
2021/01/14 06:23:14;;;;;;;3.83;2.00;;;;;;;;;;5071223;28;20417;-66
2021/01/14 06:26:06;;;;;;;3.63;1.67;;;;;;;;;;5070767;28;20395;-66
2021/01/14 06:28:34;;;;;;;2.97;1.53;;;;;;;;;;5047649;28;20029;-66
2021/01/14 06:31:04;;;;;;;4.50;2.87;;;;;;;;;;5054851;28;20019;-64
2021/01/14 06:33:30;;;;;;;2.60;2.20;;;;;;;;;;5069828;28;20020;-65
2021/01/14 06:36:04;;;;;;;3.53;2.63;;;;;;;;;;5071432;28;20028;-65
2021/01/14 06:38:39;;;;;;;2.77;2.30;;;;;;;;;;5066145;28;20013;-65
2021/01/14 06:41:04;;;;;;;4.22;2.80;;;;;;;;;;5055893;28;20013;-65
2021/01/14 06:43:36;;;;;;;5.43;3.87;;;;;;;;;;5052599;28;20361;-65
2021/01/14 06:46:06;;;;;;;3.03;2.10;;;;;;;;;;5051943;28;20063;-65
2021/01/14 06:48:33;;;;;;;4.90;2.70;;;;;;;;;;5052732;28;20017;-65
2021/01/14 06:51:02;;;;;;;1.67;1.20;;;;;;;;;;5063778;28;20123;-65
2021/01/14 06:53:28;;;;;;;4.20;3.23;;;;;;;;;;5052949;28;20145;-65
2021/01/14 06:55:54;;;;;;;4.30;2.13;;;;;;;;;;5063078;28;20025;-65
2021/01/14 06:58:21;;;;;;;4.27;2.83;;;;;;;;;;5050768;28;20130;-65
2021/01/14 07:00:47;;;;;;;3.60;2.63;;;;;;;;;;5062512;28;20095;-65
2021/01/14 07:03:13;;;;;;;3.93;2.17;;;;;;;;;;5069428;28;20012;-65
2021/01/14 07:05:44;;;;;;;2.20;1.63;;;;;;;;;;5071086;28;20040;-65
2021/01/14 07:08:16;;;;;;;2.70;2.20;;;;;;;;;;5071314;28;20025;-65
2021/01/14 07:10:48;;;;;;;1.77;0.83;;;;;;;;;;5068354;28;20073;-65
2021/01/14 07:13:13;;;;;;;2.47;1.10;;;;;;;;;;5071971;28;20025;-65
2021/01/14 07:15:43;;;;;;;2.83;1.30;;;;;;;;;;5067755;28;20039;-65
2021/01/14 07:18:08;;;;;;;2.53;1.63;;;;;;;;;;5064164;28;20029;-65
2021/01/14 07:20:35;;;;;;;3.70;1.90;;;;;;;;;;5069814;28;20494;-65
2021/01/14 07:23:01;;;;;;;2.47;1.50;;;;;;;;;;5068542;28;20105;-65
2021/01/14 07:25:27;;;;;;;3.00;1.70;;;;;;;;;;5052223;28;20044;-65
2021/01/14 07:27:52;;;;;;;2.10;1.40;;;;;;;;;;5055249;28;20024;-66
2021/01/14 07:30:18;;;;;;;2.67;1.37;;;;;;;;;;5088116;28;20032;-64
2021/01/14 07:32:54;;;;;;;2.87;2.30;;;;;;;;;;5067478;28;20389;-65
2021/01/14 07:35:35;;;;;;;4.17;2.07;;;;;;;;;;5068751;28;20029;-65
2021/01/14 07:38:01;;;;;;;2.83;1.40;;;;;;;;;;5054439;28;20032;-64
2021/01/14 07:40:30;;;;;;;3.07;1.80;;;;;;;;;;5051814;28;20017;-67
2021/01/14 07:43:06;;;;;;;1.93;1.50;;;;;;;;;;5066263;28;20020;-64
2021/01/14 07:45:31;;;;;;;2.87;1.17;;;;;;;;;;5074394;28;20025;-66
2021/01/14 07:48:16;;;;;;;2.63;1.70;;;;;;;;;;5054512;28;20476;-67
2021/01/14 07:50:55;;;;;;;1.97;1.27;;;;;;;;;;5054964;28;20025;-63
2021/01/14 07:53:21;;;;;;;2.60;1.47;;;;;;;;;;5063847;28;20025;-66
2021/01/14 07:55:46;;;;;;;3.50;1.80;;;;;;;;;;5054079;28;20028;-66
2021/01/14 07:58:11;;;;;;;2.97;1.83;;;;;;;;;;5072660;28;20023;-66
2021/01/14 08:00:38;;;;;;;3.17;1.70;;;;;;;;;;5056332;28;20021;-67
2021/01/14 08:03:07;;;;;;;2.73;1.63;;;;;;;;;;5054321;28;20021;-65
2021/01/14 08:05:42;;;;;;;3.53;1.30;;;;;;;;;;5070322;28;20096;-64
2021/01/14 08:08:26;;;;;;;3.40;1.60;;;;;;;;;;5057840;28;20095;-64
2021/01/14 08:11:05;;;;;;;2.70;1.60;;;;;;;;;;5062828;28;20021;-64
2021/01/14 08:13:30;;;;;;;2.97;1.87;;;;;;;;;;5055578;28;20021;-63
2021/01/14 08:15:56;;;;;;;2.17;1.80;;;;;;;;;;5054495;28;20013;-61
2021/01/14 08:18:23;;;;;;;2.07;1.60;;;;;;;;;;5053126;28;20472;-60
2021/01/14 08:21:08;;;;;;;3.53;2.17;;;;;;;;;;5052348;28;20071;-60
2021/01/14 08:23:40;;;;;;;2.40;1.45;;;;;;;;;;5064123;28;20023;-60
2021/01/14 08:26:07;;;;;;;2.87;1.80;;;;;;;;;;5074169;28;20018;-62
2021/01/14 08:28:32;;;;;;;2.80;1.80;;;;;;;;;;5066148;28;20126;-61
2021/01/14 08:30:58;;;;;;;3.60;2.23;;;;;;;;;;5053446;28;20035;-63
2021/01/14 08:33:24;;;;;;;6.00;2.23;;;;;;;;;;5053923;28;20017;-62
2021/01/14 08:35:49;;;;;;;2.67;2.10;;;;;;;;;;5053908;28;20399;-61
2021/01/14 08:38:16;;;;;;;2.17;1.63;;;;;;;;;;5066491;28;20112;-61
2021/01/14 08:40:42;;;;;;;1.93;1.20;;;;;;;;;;5068915;28;20030;-62
2021/01/14 08:43:14;;;;;;;3.97;1.90;;;;;;;;;;5061568;28;20021;-61
2021/01/14 08:45:43;;;;;;;4.13;1.90;;;;;;;;;;5053503;28;20025;-61
2021/01/14 08:48:09;;;;;;;2.87;1.60;;;;;;;;;;5056823;28;20046;-60
2021/01/14 08:50:38;;;;;;;3.27;2.10;;;;;;;;;;5055818;28;20036;-61
2021/01/14 08:53:07;;;;;;;2.57;0.97;;;;;;;;;;5060353;28;20044;-61
2021/01/14 08:55:33;;;;;;;3.53;2.07;;;;;;;;;;5055521;28;20029;-60
2021/01/14 08:58:00;;;;;;;3.97;2.07;;;;;;;;;;5053151;28;20036;-64
2021/01/14 09:00:25;;;;;;;4.63;1.87;;;;;;;;;;5062663;28;20081;-63
2021/01/14 09:02:51;;;;;;;2.87;1.87;;;;;;;;;;5060951;28;20024;-61
2021/01/14 09:05:16;;;;;;;2.97;1.83;;;;;;;;;;5070624;28;20100;-61
2021/01/14 09:07:49;;;;;;;5.20;1.90;;;;;;;;;;5052622;28;20025;-62
2021/01/14 09:10:14;;;;;;;2.10;1.00;;;;;;;;;;5050248;28;20460;-62
2021/01/14 09:12:41;;;;;;;3.73;1.33;;;;;;;;;;5066995;28;20027;-62
2021/01/14 09:15:06;;;;;;;2.83;1.57;;;;;;;;;;5053788;28;20044;-61
2021/01/14 09:17:31;;;;;;;3.33;1.90;;;;;;;;;;5070278;28;20021;-63
2021/01/14 09:19:57;;;;;;;3.80;2.33;;;;;;;;;;5059628;28;20021;-61
2021/01/14 09:22:23;;;;;;;2.67;2.13;;;;;;;;;;5068800;28;20013;-62
2021/01/14 09:24:48;;;;;;;4.47;2.93;;;;;;;;;;5052538;28;20115;-61
2021/01/14 09:27:13;;;;;;;4.20;2.50;;;;;;;;;;5053102;28;20013;-64
2021/01/14 09:29:38;;;;;;;3.53;2.03;;;;;;;;;;5057601;28;20020;-67
2021/01/14 09:32:11;;;;;;;3.70;2.53;;;;;;;;;;5071416;28;20034;-62
2021/01/14 09:34:36;;;;;;;3.47;2.60;;;;;;;;;;5059777;28;20039;-61
2021/01/14 09:37:02;;;;;;;5.93;2.87;;;;;;;;;;5064497;28;20119;-61
2021/01/14 09:39:27;;;;;;;5.53;3.33;;;;;;;;;;5053275;28;20378;-61
2021/01/14 09:41:55;;;;;;;4.90;3.27;;;;;;;;;;5054026;28;20455;-61
2021/01/14 09:44:20;;;;;;;4.57;3.43;;;;;;;;;;5052524;28;20048;-61
2021/01/14 09:46:46;;;;;;;3.00;2.10;;;;;;;;;;5058468;28;20044;-61
2021/01/14 09:49:17;;;;;;;3.53;2.27;;;;;;;;;;5068267;28;20382;-61
2021/01/14 09:51:43;;;;;;;3.33;2.00;;;;;;;;;;5065735;28;20100;-61
2021/01/14 09:54:09;;;;;;;4.23;2.23;;;;;;;;;;5067197;28;20100;-62
2021/01/14 09:56:38;;;;;;;3.07;1.80;;;;;;;;;;5072311;28;20024;-61
2021/01/14 09:59:08;;;;;;;2.27;1.77;;;;;;;;;;5069172;28;20095;-62
2021/01/14 10:01:34;;;;;;;2.70;1.90;;;;;;;;;;5071992;28;20489;-61
2021/01/14 10:04:09;;;;;;;3.53;2.40;;;;;;;;;;5070739;28;20107;-61
2021/01/14 10:06:38;;;;;;;3.55;1.20;;;;;;;;;;5058124;28;20158;-61
2021/01/14 10:09:04;;;;;;;4.70;2.57;;;;;;;;;;5056014;28;20016;-61
2021/01/14 10:11:29;;;;;;;4.20;2.30;;;;;;;;;;5052750;28;20367;-61
2021/01/14 10:13:55;;;;;;;2.87;2.33;;;;;;;;;;5051019;28;20028;-61
2021/01/14 10:16:21;;;;;;;3.97;2.90;;;;;;;;;;5053499;28;20365;-61
2021/01/14 10:18:47;;;;;;;4.20;2.57;;;;;;;;;;5048780;28;20126;-61
2021/01/14 10:21:15;;;;;;;4.37;2.60;;;;;;;;;;5052661;28;20041;-61
2021/01/14 10:23:41;;;;;;;5.57;3.73;;;;;;;;;;5051990;28;20012;-60
2021/01/14 10:26:06;;;;;;;5.90;3.23;;;;;;;;;;5051902;28;20025;-61
2021/01/14 10:28:42;;;;;;;4.67;2.13;;;;;;;;;;5049068;28;20025;-61
2021/01/14 10:31:07;;;;;;;6.27;4.17;;;;;;;;;;5064297;28;20025;-60
2021/01/14 10:33:32;;;;;;;6.33;4.17;;;;;;;;;;5057498;28;20013;-60
2021/01/14 10:35:57;;;;;;;4.53;3.67;;;;;;;;;;5052096;28;20113;-60
2021/01/14 10:38:23;;;;;;;3.67;2.50;;;;;;;;;;5053228;28;20052;-61
2021/01/14 10:40:49;;;;;;;5.40;2.80;;;;;;;;;;5059819;28;20021;-60
2021/01/14 10:43:14;;;;;;;7.03;4.20;;;;;;;;;;5053359;28;20021;-60
2021/01/14 10:45:40;;;;;;;5.90;3.97;;;;;;;;;;5056032;28;20554;-61
2021/01/14 10:48:07;;;;;;;5.63;4.07;;;;;;;;;;5057903;28;20029;-60
2021/01/14 10:50:33;;;;;;;4.30;3.40;;;;;;;;;;5065012;28;20032;-60
2021/01/14 10:53:03;;;;;;;5.57;4.73;;;;;;;;;;5056664;28;20044;-59
2021/01/14 10:55:29;;;;;;;6.43;4.47;;;;;;;;;;5059258;28;20115;-61
2021/01/14 10:57:55;;;;;;;5.73;4.10;;;;;;;;;;5059049;28;20115;-63
2021/01/14 11:00:20;;;;;;;7.70;4.30;;;;;;;;;;5049136;28;20025;-62
2021/01/14 11:02:46;;;;;;;4.33;3.30;;;;;;;;;;5056903;28;20036;-62
2021/01/14 11:05:14;;;;;;;5.83;4.20;;;;;;;;;;5062346;28;20056;-63
2021/01/14 11:07:40;;;;;;;4.83;3.33;;;;;;;;;;5059360;28;20040;-63
2021/01/14 11:10:09;;;;;;;5.83;4.30;;;;;;;;;;5058829;28;20021;-62
2021/01/14 11:12:54;;;;;;;6.20;3.70;;;;;;;;;;5063527;28;20046;-63
2021/01/14 11:15:19;;;;;;;3.17;2.40;;;;;;;;;;5056568;28;20025;-63
2021/01/14 11:17:44;;;;;;;5.13;3.00;;;;;;;;;;5065046;28;20035;-63
2021/01/14 11:20:10;;;;;;;6.03;3.87;;;;;;;;;;5059744;28;20034;-63
2021/01/14 11:22:35;;;;;;;5.33;3.70;;;;;;;;;;5058748;28;20114;-64
2021/01/14 11:25:00;;;;;;;7.10;4.13;;;;;;;;;;5063264;28;20044;-63
2021/01/14 11:27:28;;;;;;;4.10;3.20;;;;;;;;;;5061653;28;20032;-62
2021/01/14 11:29:54;;;;;;;6.23;3.50;;;;;;;;;;5053829;28;20068;-62
2021/01/14 11:32:19;;;;;;;3.50;2.23;;;;;;;;;;5060043;28;20474;-62
2021/01/14 11:34:44;;;;;;;4.37;2.97;;;;;;;;;;5061674;28;20024;-64
2021/01/14 11:37:09;;;;;;;5.37;2.83;;;;;;;;;;5057072;28;20025;-62
2021/01/14 11:39:35;;;;;;;5.93;3.10;;;;;;;;;;5057593;28;20016;-61
2021/01/14 11:42:02;;;;;;;8.93;3.40;;;;;;;;;;5060578;28;20306;-62
2021/01/14 11:44:28;;;;;;;6.87;2.73;;;;;;;;;;5056705;28;20387;-62
2021/01/14 11:46:54;;;;;;;5.87;3.07;;;;;;;;;;5058884;28;20013;-62
2021/01/14 11:49:19;;;;;;;3.77;2.60;;;;;;;;;;5062049;28;20032;-63
2021/01/14 11:51:50;;;;;;;4.23;2.80;;;;;;;;;;5060909;28;20020;-62
2021/01/14 11:54:15;;;;;;;4.57;2.90;;;;;;;;;;5060657;28;20019;-61
2021/01/14 11:56:41;;;;;;;5.37;2.33;;;;;;;;;;5061424;28;20054;-63
2021/01/14 11:59:06;;;;;;;3.93;2.70;;;;;;;;;;5054206;28;20021;-62
2021/01/14 12:01:31;;;;;;;3.83;2.40;;;;;;;;;;5056495;28;20024;-62
2021/01/14 12:03:57;;;;;;;4.23;2.27;;;;;;;;;;5067686;28;20056;-62
2021/01/14 12:06:22;;;;;;;5.83;2.77;;;;;;;;;;5058103;28;20463;-60
2021/01/14 12:08:47;;;;;;;3.60;2.43;;;;;;;;;;5056929;28;20035;-60
2021/01/14 12:11:16;;;;;;;3.37;2.30;;;;;;;;;;5059203;28;20028;-62
2021/01/14 12:13:41;;;;;;;3.00;1.97;;;;;;;;;;5056797;28;20025;-62
2021/01/14 12:16:07;;;;;;;5.67;2.70;;;;;;;;;;5056023;28;20031;-63
2021/01/14 12:18:32;;;;;;;4.53;2.20;;;;;;;;;;5054192;28;20037;-63
2021/01/14 12:20:57;;;;;;;3.80;1.83;;;;;;;;;;5060422;28;20024;-61
2021/01/14 12:23:22;;;;;;;3.53;1.83;;;;;;;;;;5062460;28;20017;-61
2021/01/14 12:25:47;;;;;;;4.50;2.23;;;;;;;;;;5057458;28;20559;-61
2021/01/14 12:28:13;;;;;;;3.73;1.77;;;;;;;;;;5064653;28;20035;-61
2021/01/14 12:30:38;;;;;;;2.93;1.50;;;;;;;;;;5050989;28;20037;-61
2021/01/14 12:33:04;;;;;;;4.43;2.80;;;;;;;;;;5054192;28;20068;-61
2021/01/14 12:35:29;;;;;;;3.63;1.83;;;;;;;;;;5057144;28;20021;-61
2021/01/14 12:37:54;;;;;;;5.00;1.90;;;;;;;;;;5058147;28;20047;-61
2021/01/14 12:40:19;;;;;;;3.87;1.87;;;;;;;;;;5060751;28;20023;-60
2021/01/14 12:42:46;;;;;;;5.57;2.43;;;;;;;;;;5066719;28;20755;-61
2021/01/14 12:45:11;;;;;;;3.50;2.23;;;;;;;;;;5062671;28;20016;-61
2021/01/14 12:47:40;;;;;;;5.67;2.20;;;;;;;;;;5055831;28;20166;-61
2021/01/14 12:50:06;;;;;;;4.03;2.10;;;;;;;;;;5062009;28;20323;-61
2021/01/14 12:52:33;;;;;;;4.73;2.17;;;;;;;;;;5071511;28;20024;-61
2021/01/14 12:54:58;;;;;;;4.97;2.10;;;;;;;;;;5067400;28;20048;-61
2021/01/14 12:57:23;;;;;;;5.40;2.47;;;;;;;;;;5068692;28;20028;-61
2021/01/14 12:59:48;;;;;;;9.17;2.47;;;;;;;;;;5070261;28;20009;-61
2021/01/14 13:02:14;;;;;;;5.03;2.73;;;;;;;;;;5070927;28;20070;-61
2021/01/14 13:04:39;;;;;;;4.23;2.47;;;;;;;;;;5066751;28;20032;-61
2021/01/14 13:07:04;;;;;;;4.93;2.00;;;;;;;;;;5052193;28;20020;-61
2021/01/14 13:09:29;;;;;;;3.47;1.97;;;;;;;;;;5049721;28;20071;-61
2021/01/14 13:11:55;;;;;;;4.67;2.27;;;;;;;;;;5053404;28;20029;-61
2021/01/14 13:14:20;;;;;;;4.97;2.03;;;;;;;;;;5053487;28;20032;-61
2021/01/14 13:16:45;;;;;;;5.77;2.30;;;;;;;;;;5071013;28;20077;-61
2021/01/14 13:19:11;;;;;;;5.60;1.80;;;;;;;;;;5062746;28;20034;-61
2021/01/14 13:21:43;;;;;;;3.37;1.90;;;;;;;;;;5062428;28;20487;-61
2021/01/14 13:24:10;;;;;;;6.60;1.33;;;;;;;;;;5070764;28;20044;-61
2021/01/14 13:26:35;;;;;;;6.20;2.03;;;;;;;;;;5072288;28;20055;-61
2021/01/14 13:29:01;;;;;;;3.17;0.97;;;;;;;;;;5069825;28;20043;-61
2021/01/14 13:31:26;;;;;;;5.27;1.60;;;;;;;;;;5065685;28;20024;-61
2021/01/14 13:33:51;;;;;;;3.70;1.20;;;;;;;;;;5073003;28;20421;-61
2021/01/14 13:36:17;;;;;;;7.73;1.80;;;;;;;;;;5056707;28;20021;-62
2021/01/14 13:38:42;;;;;;;3.57;1.77;;;;;;;;;;5049286;28;20021;-62
2021/01/14 13:41:08;;;;;;;5.27;1.57;;;;;;;;;;5059240;28;20158;-61
2021/01/14 13:43:34;;;;;;;4.93;2.00;;;;;;;;;;5054591;28;20012;-61
2021/01/14 13:45:59;;;;;;;3.63;2.17;;;;;;;;;;5052703;28;20078;-61
2021/01/14 13:48:24;;;;;;;3.53;1.60;;;;;;;;;;5053567;28;20029;-61
2021/01/14 13:50:50;;;;;;;4.50;0.90;;;;;;;;;;5058426;28;20068;-61
2021/01/14 13:53:15;;;;;;;3.80;1.87;;;;;;;;;;5058174;28;20543;-61
2021/01/14 13:55:43;;;;;;;3.00;1.70;;;;;;;;;;5053941;28;20017;-61
2021/01/14 13:58:12;;;;;;;5.13;1.13;;;;;;;;;;5057587;28;20127;-61
2021/01/14 14:00:43;;;;;;;7.90;2.20;;;;;;;;;;5052756;28;20483;-62
2021/01/14 14:03:08;;;;;;;3.27;0.97;;;;;;;;;;5055372;28;20027;-62
2021/01/14 14:05:34;;;;;;;6.27;1.53;;;;;;;;;;5055809;28;20025;-62
2021/01/14 14:07:59;;;;;;;6.93;2.50;;;;;;;;;;5056422;28;20115;-61
2021/01/14 14:10:24;;;;;;;7.80;3.13;;;;;;;;;;5049053;28;20111;-62
2021/01/14 14:12:49;;;;;;;6.90;2.67;;;;;;;;;;5055750;28;20036;-62
2021/01/14 14:15:15;;;;;;;5.53;2.47;;;;;;;;;;5059509;28;20016;-61
2021/01/14 14:17:40;;;;;;;6.93;2.70;;;;;;;;;;5059026;28;20028;-63
2021/01/14 14:20:05;;;;;;;7.27;1.97;;;;;;;;;;5059721;28;20175;-60
2021/01/14 14:22:31;;;;;;;5.23;2.10;;;;;;;;;;5056122;28;20092;-61
2021/01/14 14:24:56;;;;;;;5.43;2.90;;;;;;;;;;5056231;28;20072;-62
2021/01/14 14:27:21;;;;;;;3.97;1.60;;;;;;;;;;5058129;28;20464;-62
2021/01/14 14:29:46;;;;;;;4.47;2.00;;;;;;;;;;5053616;28;20020;-64
2021/01/14 14:32:12;;;;;;;6.83;3.87;;;;;;;;;;5063301;28;20075;-62
2021/01/14 14:34:37;;;;;;;2.60;2.27;;;;;;;;;;5064520;28;20025;-63
2021/01/14 14:37:02;;;;;;;4.63;3.20;;;;;;;;;;5057787;28;20056;-62
2021/01/14 14:39:27;;;;;;;7.13;3.50;;;;;;;;;;5059943;28;20033;-63
2021/01/14 14:41:53;;;;;;;8.30;3.90;;;;;;;;;;5058672;28;20375;-64